Time;durP1;ratioP1;P1;durP2;ratioP2;P2;SDS_P1;SDS_P2;PMS_P1;PMS_P2;Temp;Humidity;BMP_temperature;BMP_pressure;BME280_temperature;BME280_humidity;BME280_pressure;Samples;Min_cycle;Max_cycle;Signal;HPM_P1;HPM_P2
2023/03/28 00:01:08;;;;;;;9.55;3.30;;;;;;;3.92;89.65;102574.34;5099229;28;20130;-64
2023/03/28 00:03:38;;;;;;;12.18;3.70;;;;;;;3.91;89.65;102570.00;5127951;27;20045;-64
2023/03/28 00:06:17;;;;;;;7.88;3.33;;;;;;;3.93;89.79;102568.78;5137236;27;20043;-63
2023/03/28 00:08:46;;;;;;;8.38;3.17;;;;;;;3.93;89.70;102574.19;5137008;27;20376;-64
2023/03/28 00:11:19;;;;;;;11.82;3.50;;;;;;;3.91;89.26;102567.28;5137351;27;20362;-64
2023/03/28 00:13:59;;;;;;;8.93;3.25;;;;;;;3.89;89.38;102569.34;5121791;27;20120;-63
2023/03/28 00:16:33;;;;;;;9.80;3.55;;;;;;;3.88;89.44;102570.38;5113480;27;20047;-64
2023/03/28 00:19:05;;;;;;;10.68;4.00;;;;;;;3.88;90.16;102565.81;5116951;27;20059;-63
2023/03/28 00:21:36;;;;;;;12.52;3.72;;;;;;;3.91;89.90;102565.44;5099032;28;20131;-64
2023/03/28 00:24:09;;;;;;;8.50;3.40;;;;;;;3.93;89.77;102566.09;5094781;28;20052;-64
2023/03/28 00:26:37;;;;;;;11.75;3.78;;;;;;;3.95;89.46;102568.63;5095107;28;20055;-63
2023/03/28 00:29:07;;;;;;;12.32;3.85;;;;;;;3.93;89.11;102574.19;5095497;28;20126;-63
2023/03/28 00:31:38;;;;;;;11.68;3.63;;;;;;;3.90;89.92;102568.31;5096291;28;20048;-62
2023/03/28 00:34:06;;;;;;;11.77;3.38;;;;;;;3.87;89.70;102574.06;5097596;27;20128;-62
2023/03/28 00:36:38;;;;;;;9.35;3.20;;;;;;;3.86;89.87;102573.22;5114836;28;20071;-62
2023/03/28 00:39:06;;;;;;;8.77;3.40;;;;;;;3.84;90.02;102565.31;5098591;28;20123;-64
2023/03/28 00:41:41;;;;;;;12.95;3.33;;;;;;;3.84;90.65;102565.31;5064673;28;20101;-63
2023/03/28 00:44:37;;;;;;;10.60;3.30;;;;;;;3.84;90.25;102569.88;5114774;27;20125;-65
2023/03/28 00:47:07;;;;;;;9.90;3.05;;;;;;;3.84;90.75;102565.31;5094535;28;20092;-64
2023/03/28 00:49:35;;;;;;;8.40;2.95;;;;;;;3.83;90.10;102565.50;5094687;28;20138;-64
2023/03/28 00:52:04;;;;;;;9.90;3.05;;;;;;;3.81;89.98;102570.22;5077830;28;20127;-65
2023/03/28 00:54:37;;;;;;;9.82;3.28;;;;;;;3.80;90.21;102573.94;5080757;27;20047;-64
2023/03/28 00:57:06;;;;;;;8.57;3.30;;;;;;;3.79;90.52;102570.41;5091593;28;20462;-64
2023/03/28 00:59:36;;;;;;;7.57;3.38;;;;;;;3.78;90.92;102568.75;5094494;28;20122;-63
2023/03/28 01:02:04;;;;;;;11.60;3.58;;;;;;;3.75;90.11;102574.50;5077621;28;20473;-63
2023/03/28 01:04:39;;;;;;;8.25;3.35;;;;;;;3.72;90.91;102571.31;5073174;28;20040;-64
2023/03/28 01:07:07;;;;;;;10.10;3.70;;;;;;;3.70;91.09;102570.63;5098400;28;20071;-64
2023/03/28 01:09:37;;;;;;;12.95;3.63;;;;;;;3.69;90.71;102572.50;5105259;28;20044;-64
2023/03/28 01:12:05;;;;;;;11.63;3.70;;;;;;;3.67;90.53;102574.53;5068512;28;20056;-62
2023/03/28 01:14:33;;;;;;;10.25;3.42;;;;;;;3.65;91.21;102568.47;5084497;28;20040;-64
2023/03/28 01:17:03;;;;;;;8.38;3.15;;;;;;;3.65;90.92;102571.19;5090225;28;20206;-63
2023/03/28 01:19:57;;;;;;;12.38;3.95;;;;;;;3.66;91.08;102570.19;5061165;28;20046;-64
2023/03/28 01:22:52;;;;;;;13.27;3.55;;;;;;;3.66;90.56;102564.78;5094107;28;20052;-65
2023/03/28 01:26:10;;;;;;;11.38;3.63;;;;;;;3.65;91.28;102560.41;5096958;28;20051;-63
2023/03/28 01:29:02;;;;;;;9.63;3.45;;;;;;;3.65;90.82;102565.78;5075304;28;20059;-64
2023/03/28 01:31:41;;;;;;;11.90;3.80;;;;;;;3.63;91.46;102551.66;5094069;28;20438;-64
2023/03/28 01:35:04;;;;;;;13.52;4.22;;;;;;;3.62;90.95;102549.97;5095605;27;20040;-62
2023/03/28 01:37:37;;;;;;;13.65;3.90;;;;;;;3.59;91.04;102542.25;5101682;28;20098;-63
2023/03/28 01:40:32;;;;;;;11.60;3.70;;;;;;;3.59;91.39;102544.97;5093579;28;20058;-62
2023/03/28 01:43:11;;;;;;;10.82;3.45;;;;;;;3.62;90.91;102549.97;5093211;28;20105;-63
2023/03/28 01:45:39;;;;;;;;;;;;;;;3.63;90.60;102551.66;5082478;28;20097;-62
2023/03/28 01:48:18;;;;;;;12.57;3.30;;;;;;;3.60;91.09;102547.44;5112865;28;20329;-63
2023/03/28 01:50:56;;;;;;;9.77;3.20;;;;;;;3.58;90.67;102554.03;5093851;28;20056;-64
2023/03/28 01:53:47;;;;;;;9.88;3.75;;;;;;;3.56;90.51;102556.06;5060323;28;20048;-62
2023/03/28 01:56:21;;;;;;;12.30;3.30;;;;;;;3.56;90.87;102548.00;5098264;28;20035;-64
2023/03/28 01:58:53;;;;;;;9.63;3.30;;;;;;;3.57;91.27;102547.81;5095003;28;20043;-62
2023/03/28 02:01:35;;;;;;;10.13;3.45;;;;;;;3.58;91.03;102543.25;5113327;28;20403;-64
2023/03/28 02:04:12;;;;;;;10.70;3.78;;;;;;;3.60;90.81;102542.06;5082277;28;20051;-63
2023/03/28 02:06:58;;;;;;;11.77;3.30;;;;;;;3.59;90.70;102544.97;5094882;28;20120;-63
2023/03/28 02:09:31;;;;;;;12.43;3.20;;;;;;;3.57;90.45;102536.22;5072796;28;20510;-63
2023/03/28 02:12:04;;;;;;;10.43;3.40;;;;;;;3.55;91.06;102538.25;5093069;28;20051;-64
2023/03/28 02:14:51;;;;;;;15.10;3.88;;;;;;;3.54;90.79;102541.97;5095511;28;20047;-64
2023/03/28 02:17:40;;;;;;;10.57;3.50;;;;;;;3.51;90.85;102542.31;5112398;28;20047;-63
2023/03/28 02:20:35;;;;;;;13.73;3.90;;;;;;;3.48;91.15;102542.66;5088549;28;20039;-64
2023/03/28 02:23:21;;;;;;;10.77;3.55;;;;;;;3.46;90.51;102542.00;5104662;28;20047;-64
2023/03/28 02:26:08;;;;;;;8.80;3.45;;;;;;;3.41;91.43;102543.34;5115127;28;20066;-66
2023/03/28 02:28:43;;;;;;;9.57;3.63;;;;;;;3.42;90.96;102538.84;5102457;28;20075;-64
2023/03/28 02:31:31;;;;;;;11.68;3.08;;;;;;;3.44;91.41;102544.03;5099337;28;20435;-65
2023/03/28 02:34:00;;;;;;;13.57;3.88;;;;;;;3.44;91.04;102531.41;5094130;28;20106;-62
2023/03/28 02:36:37;;;;;;;11.77;3.50;;;;;;;3.45;91.33;102537.63;5073658;28;20040;-62
2023/03/28 02:39:20;;;;;;;12.50;3.50;;;;;;;3.42;90.68;102536.97;5114228;28;20040;-63
2023/03/28 02:42:02;;;;;;;10.55;3.50;;;;;;;3.40;91.60;102541.69;5113041;28;20039;-62
2023/03/28 02:44:48;;;;;;;8.10;3.28;;;;;;;3.37;91.45;102542.06;5112864;28;20143;-63
2023/03/28 02:47:15;;;;;;;8.38;3.60;;;;;;;3.35;91.31;102544.09;5110318;28;20069;-65
2023/03/28 02:49:50;;;;;;;8.77;3.58;;;;;;;3.34;91.41;102547.81;5095899;28;20043;-64
2023/03/28 02:52:19;;;;;;;10.55;3.53;;;;;;;3.34;91.32;102553.19;5112483;28;20063;-63
2023/03/28 02:55:13;;;;;;;10.63;3.13;;;;;;;3.32;91.05;102549.84;5114865;28;20052;-64
2023/03/28 02:58:02;;;;;;;12.75;3.78;;;;;;;3.31;91.55;102541.94;5092789;28;20048;-64
2023/03/28 03:00:30;;;;;;;12.02;3.55;;;;;;;3.29;91.78;102539.41;5058882;28;20093;-64
2023/03/28 03:02:58;;;;;;;9.98;3.22;;;;;;;3.29;91.29;102538.56;5091851;28;20048;-62
2023/03/28 03:05:26;;;;;;;10.60;3.47;;;;;;;3.28;91.03;102532.34;5059108;28;20047;-63
2023/03/28 03:07:54;;;;;;;8.60;3.15;;;;;;;3.28;91.38;102532.34;5092298;28;20368;-62
2023/03/28 03:10:23;;;;;;;11.50;3.60;;;;;;;3.31;91.54;102525.75;5095463;28;20047;-64
2023/03/28 03:12:51;;;;;;;10.60;3.22;;;;;;;3.29;91.75;102528.63;5095981;28;20054;-63
2023/03/28 03:15:19;;;;;;;9.15;3.33;;;;;;;3.29;91.62;102530.47;5113006;28;20051;-63
2023/03/28 03:17:58;;;;;;;11.90;3.85;;;;;;;3.27;91.18;102536.06;5099225;28;20052;-62
2023/03/28 03:20:33;;;;;;;9.15;3.65;;;;;;;3.27;91.51;102541.47;5119778;28;20542;-64
2023/03/28 03:23:03;;;;;;;11.77;3.30;;;;;;;3.29;91.66;102533.19;5074423;28;20048;-61
2023/03/28 03:25:34;;;;;;;12.38;3.58;;;;;;;3.27;91.73;102541.47;5097832;28;20062;-63
2023/03/28 03:28:34;;;;;;;9.60;3.38;;;;;;;3.28;91.61;102532.34;5081010;28;20050;-62
2023/03/28 03:31:05;;;;;;;10.23;3.80;;;;;;;3.29;91.31;102534.00;5126503;27;20050;-63
2023/03/28 03:33:33;;;;;;;9.55;3.30;;;;;;;3.31;91.19;102544.63;5132274;28;20100;-61
2023/03/28 03:36:05;;;;;;;6.15;2.88;;;;;;;3.31;91.09;102536.53;5101402;28;20048;-62
2023/03/28 03:38:34;;;;;;;10.82;3.88;;;;;;;3.34;91.57;102539.72;5117405;28;20070;-64
2023/03/28 03:41:02;;;;;;;8.60;3.42;;;;;;;3.33;90.80;102538.03;5109018;27;20044;-62
2023/03/28 03:43:30;;;;;;;8.25;3.40;;;;;;;3.29;90.76;102535.88;5096084;28;20048;-63
2023/03/28 03:46:01;;;;;;;12.02;3.28;;;;;;;3.26;90.96;102534.38;5107096;28;20051;-63
2023/03/28 03:48:29;;;;;;;7.88;3.28;;;;;;;3.24;90.74;102531.00;5099424;28;20077;-63
2023/03/28 03:50:59;;;;;;;7.50;3.30;;;;;;;3.25;90.50;102537.22;5100020;27;20148;-64
2023/03/28 03:53:28;;;;;;;10.52;3.50;;;;;;;3.20;90.32;102529.72;5098693;28;20138;-65
2023/03/28 03:56:05;;;;;;;11.05;3.60;;;;;;;3.17;90.47;102530.88;5099495;28;20046;-63
2023/03/28 03:58:51;;;;;;;12.35;3.53;;;;;;;3.15;90.64;102532.94;5115858;28;20047;-64
2023/03/28 04:01:20;;;;;;;12.02;3.95;;;;;;;3.12;90.63;102535.13;5115608;27;20043;-64
2023/03/28 04:03:48;;;;;;;13.80;3.47;;;;;;;3.10;90.93;102532.63;5095298;28;20134;-64
2023/03/28 04:06:23;;;;;;;9.45;3.42;;;;;;;3.12;91.02;102535.13;5112969;28;20060;-64
2023/03/28 04:08:51;;;;;;;9.98;3.30;;;;;;;3.13;90.75;102536.81;5095302;28;20066;-64
2023/03/28 04:11:35;;;;;;;9.77;3.20;;;;;;;3.09;90.50;102539.00;5080955;28;20082;-63
2023/03/28 04:14:03;;;;;;;10.63;3.40;;;;;;;3.06;90.56;102539.38;5098513;27;20052;-62
2023/03/28 04:16:33;;;;;;;11.23;3.75;;;;;;;3.04;90.97;102535.19;5094668;28;20419;-64
2023/03/28 04:19:12;;;;;;;7.72;3.30;;;;;;;3.03;91.61;102539.72;5077804;28;20048;-64
2023/03/28 04:21:41;;;;;;;10.85;3.38;;;;;;;3.04;91.28;102536.00;5084773;28;20050;-64
2023/03/28 04:24:14;;;;;;;9.75;3.60;;;;;;;3.07;91.03;102540.19;5111163;27;20050;-63
2023/03/28 04:26:54;;;;;;;9.00;3.50;;;;;;;3.05;90.77;102532.28;5104701;28;20426;-64
2023/03/28 04:29:31;;;;;;;11.00;3.20;;;;;;;3.02;90.47;102531.81;5095029;28;20176;-63
2023/03/28 04:32:28;;;;;;;8.25;3.38;;;;;;;3.04;91.47;102533.31;5053519;28;20052;-64
2023/03/28 04:35:03;;;;;;;7.95;3.40;;;;;;;3.05;91.25;102528.75;5093560;28;20491;-63
2023/03/28 04:37:31;;;;;;;7.85;3.28;;;;;;;3.03;91.00;102528.09;5094458;28;20052;-62
2023/03/28 04:40:09;;;;;;;9.20;3.45;;;;;;;3.02;91.22;102526.44;5077288;28;20036;-62
2023/03/28 04:42:55;;;;;;;12.15;3.90;;;;;;;2.98;91.18;102516.03;5108811;28;20514;-64
2023/03/28 04:45:28;;;;;;;12.15;3.80;;;;;;;2.99;91.35;102522.22;5114706;28;20131;-64
2023/03/28 04:48:02;;;;;;;10.35;3.50;;;;;;;2.99;90.97;102531.16;5102753;28;20090;-64
2023/03/28 04:50:30;;;;;;;8.95;3.53;;;;;;;2.99;91.07;102525.75;5093955;28;20051;-62
2023/03/28 04:53:00;;;;;;;8.43;3.53;;;;;;;2.97;91.05;102524.25;5087141;28;20472;-62
2023/03/28 04:55:28;;;;;;;10.93;3.60;;;;;;;2.97;91.04;102530.47;5077687;28;20051;-64
2023/03/28 04:57:56;;;;;;;8.68;3.58;;;;;;;2.97;91.09;102533.16;5108521;28;20109;-62
2023/03/28 05:00:24;;;;;;;9.77;3.72;;;;;;;3.01;91.01;102535.50;5077499;28;20039;-63
2023/03/28 05:03:04;;;;;;;11.80;3.72;;;;;;;3.01;91.37;102535.50;5100324;27;20047;-62
2023/03/28 05:05:45;;;;;;;9.13;3.75;;;;;;;2.99;91.28;102541.91;5082350;28;20048;-63
2023/03/28 05:08:15;;;;;;;13.68;4.13;;;;;;;2.97;90.70;102538.56;5109158;28;20047;-64
2023/03/28 05:10:44;;;;;;;9.85;3.90;;;;;;;2.98;91.35;102540.25;5076380;28;20056;-64
2023/03/28 05:13:13;;;;;;;10.10;4.00;;;;;;;2.97;91.21;102538.56;5097568;28;20047;-61
2023/03/28 05:15:47;;;;;;;9.10;3.95;;;;;;;2.96;90.74;102539.59;5112202;28;20060;-63
2023/03/28 05:18:35;;;;;;;11.32;4.07;;;;;;;2.91;90.81;102544.66;5075989;28;20040;-64
2023/03/28 05:21:04;;;;;;;11.73;4.45;;;;;;;2.78;91.95;102557.81;5080233;28;20569;-63
2023/03/28 05:23:31;;;;;;;13.27;4.75;;;;;;;2.71;92.31;102546.06;5095867;28;20823;-63
2023/03/28 05:26:01;;;;;;;14.35;4.85;;;;;;;2.68;93.02;102554.50;5089587;28;20043;-63
2023/03/28 05:28:31;;;;;;;13.55;4.35;;;;;;;2.68;93.26;102557.19;5116596;27;20036;-64
2023/03/28 05:31:00;;;;;;;12.45;4.07;;;;;;;2.76;93.08;102555.28;5117893;28;20164;-64
2023/03/28 05:33:31;;;;;;;10.73;4.13;;;;;;;2.83;92.20;102566.22;5099013;28;20043;-63
2023/03/28 05:35:59;;;;;;;11.93;4.63;;;;;;;2.85;91.84;102553.41;5112999;28;20047;-64
2023/03/28 05:38:32;;;;;;;11.75;4.20;;;;;;;2.88;92.10;102557.59;5097115;28;20059;-63
2023/03/28 05:41:06;;;;;;;12.15;4.38;;;;;;;2.94;91.73;102551.53;5113617;28;20048;-64
2023/03/28 05:43:34;;;;;;;11.27;4.22;;;;;;;2.95;92.23;102562.13;5112933;28;20090;-63
2023/03/28 05:46:03;;;;;;;11.38;4.32;;;;;;;2.95;91.81;102564.81;5109471;27;20070;-63
2023/03/28 05:48:40;;;;;;;13.30;4.05;;;;;;;2.92;92.12;102561.63;5076950;28;20114;-63
2023/03/28 05:51:08;;;;;;;10.70;3.78;;;;;;;2.90;91.95;102555.59;5075731;28;20051;-62
2023/03/28 05:53:36;;;;;;;9.50;4.13;;;;;;;2.89;91.74;102560.13;5082931;28;20050;-62
2023/03/28 05:56:04;;;;;;;9.05;3.60;;;;;;;2.88;91.88;102563.81;5092914;28;20055;-62
2023/03/28 05:58:32;;;;;;;12.73;4.30;;;;;;;2.92;92.31;102570.56;5059569;28;20055;-63
2023/03/28 06:01:03;;;;;;;9.10;4.40;;;;;;;2.94;91.89;102556.94;5093255;28;20055;-63
2023/03/28 06:03:31;;;;;;;12.98;4.97;;;;;;;2.97;92.09;102565.47;4402762;28;10000441;-62
2023/03/28 06:06:06;;;;;;;10.38;4.25;;;;;;;2.98;91.79;102563.63;5074330;28;20441;-63
2023/03/28 06:08:33;;;;;;;10.30;3.95;;;;;;;2.97;91.79;102557.41;5090893;28;20070;-64
2023/03/28 06:11:02;;;;;;;12.52;4.82;;;;;;;2.97;92.04;102561.97;5090309;28;20044;-63
2023/03/28 06:13:49;;;;;;;13.60;5.05;;;;;;;2.99;92.38;102565.31;5089042;28;20143;-64
2023/03/28 06:16:18;;;;;;;12.52;5.13;;;;;;;2.99;92.56;102557.25;5094010;27;20059;-63
2023/03/28 06:18:57;;;;;;;13.10;4.85;;;;;;;3.03;92.10;102555.88;5098730;28;20452;-63
2023/03/28 06:21:48;;;;;;;12.40;4.63;;;;;;;3.07;92.10;102564.44;5095616;28;20168;-64
2023/03/28 06:24:16;;;;;;;9.32;4.47;;;;;;;3.07;92.16;102561.75;5110251;28;20051;-63
2023/03/28 06:26:45;;;;;;;15.27;5.55;;;;;;;3.06;92.38;102560.06;5074447;28;20047;-63
2023/03/28 06:29:18;;;;;;;11.10;5.10;;;;;;;3.05;92.49;102558.38;5108995;28;20598;-63
2023/03/28 06:31:48;;;;;;;11.40;5.00;;;;;;;3.07;92.78;102556.34;5109402;28;20052;-62
2023/03/28 06:34:16;;;;;;;10.88;4.82;;;;;;;3.09;92.81;102557.84;5088595;28;20105;-64
2023/03/28 06:36:56;;;;;;;10.88;4.35;;;;;;;3.11;92.63;102561.22;5105266;28;20492;-65
2023/03/28 06:39:28;;;;;;;10.10;4.60;;;;;;;3.13;92.99;102564.59;5090985;28;20051;-64
2023/03/28 06:41:58;;;;;;;13.15;5.85;;;;;;;3.14;92.76;102560.84;5092053;28;20074;-64
2023/03/28 06:44:38;;;;;;;12.10;5.20;;;;;;;3.18;92.99;102567.59;5093842;28;20051;-64
2023/03/28 06:47:14;;;;;;;11.63;4.97;;;;;;;3.19;92.99;102566.56;5074596;28;20326;-64
2023/03/28 06:49:42;;;;;;;13.15;5.10;;;;;;;3.19;93.04;102573.81;5108482;28;20293;-63
2023/03/28 06:52:39;;;;;;;10.70;4.55;;;;;;;3.20;93.50;102567.41;5087460;28;20145;-63
2023/03/28 06:55:09;;;;;;;13.05;4.80;;;;;;;3.18;93.36;102567.59;5109389;28;20426;-64
2023/03/28 06:57:36;;;;;;;11.95;4.95;;;;;;;3.20;93.74;102568.25;5093312;28;20109;-64
2023/03/28 07:00:25;;;;;;;11.23;4.57;;;;;;;3.23;93.28;102561.66;5110754;28;20464;-64
2023/03/28 07:03:11;;;;;;;;;;;;;;;3.29;93.92;102571.72;5099525;28;20107;-65
2023/03/28 07:05:40;;;;;;;11.88;5.43;;;;;;;3.29;94.11;102576.28;5077591;28;19930;-65
2023/03/28 07:08:09;;;;;;;12.13;5.15;;;;;;;3.30;93.92;102576.13;5093298;28;20059;-63
2023/03/28 07:10:38;;;;;;;9.02;4.78;;;;;;;3.33;94.35;102577.63;5060450;28;20055;-63
2023/03/28 07:13:06;;;;;;;10.88;4.50;;;;;;;3.35;95.15;102580.97;5082721;28;20078;-64
2023/03/28 07:15:36;;;;;;;15.32;5.90;;;;;;;3.39;94.97;102575.06;5075452;28;20047;-61
2023/03/28 07:18:05;;;;;;;14.32;5.70;;;;;;;3.40;94.69;102574.03;5099124;28;20056;-62
2023/03/28 07:20:33;;;;;;;12.48;5.18;;;;;;;3.44;94.74;102581.75;5117248;28;20051;-62
2023/03/28 07:23:01;;;;;;;12.18;4.95;;;;;;;3.46;95.19;102587.81;5096442;28;20453;-63
2023/03/28 07:25:29;;;;;;;22.50;7.35;;;;;;;3.42;94.44;102592.72;5132299;27;20107;-63
2023/03/28 07:27:58;;;;;;;18.23;7.55;;;;;;;3.31;94.55;102583.16;5108202;28;20044;-63
2023/03/28 07:30:30;;;;;;;15.05;7.05;;;;;;;3.27;95.71;102584.56;5108172;28;20326;-63
2023/03/28 07:32:57;;;;;;;14.77;6.03;;;;;;;3.29;96.56;102576.28;5120320;28;20043;-62
2023/03/28 07:35:45;;;;;;;16.20;6.22;;;;;;;3.32;95.77;102587.56;5134137;28;20039;-62
2023/03/28 07:38:14;;;;;;;13.32;5.88;;;;;;;3.41;95.69;102586.47;5114861;28;20448;-63
2023/03/28 07:40:49;;;;;;;17.30;6.60;;;;;;;3.50;96.17;102599.91;5117324;28;20075;-64
2023/03/28 07:43:18;;;;;;;18.85;6.57;;;;;;;3.55;95.35;102598.34;5115731;28;20438;-62
2023/03/28 07:45:47;;;;;;;14.90;5.85;;;;;;;3.61;95.58;102599.53;5099354;28;20051;-61
2023/03/28 07:48:15;;;;;;;17.77;7.00;;;;;;;3.65;95.33;102600.81;5115859;28;20071;-62
2023/03/28 07:50:43;;;;;;;18.25;5.72;;;;;;;3.69;94.87;102602.16;5116047;28;20406;-63
2023/03/28 07:53:14;;;;;;;13.48;5.35;;;;;;;3.71;95.26;102607.38;5095572;28;20048;-63
2023/03/28 07:55:42;;;;;;;11.68;5.55;;;;;;;3.75;95.10;102598.75;5079058;28;20128;-61
2023/03/28 07:58:28;;;;;;;15.73;5.95;;;;;;;3.81;95.50;102603.41;5078651;28;20044;-63
2023/03/28 08:01:07;;;;;;;13.05;6.38;;;;;;;3.84;95.11;102592.28;5095813;28;20561;-62
2023/03/28 08:03:44;;;;;;;15.70;5.53;;;;;;;3.88;94.86;102597.31;5095648;28;20059;-64
2023/03/28 08:06:14;;;;;;;14.82;5.55;;;;;;;3.91;95.61;102592.41;5109521;28;20302;-63
2023/03/28 08:09:00;;;;;;;20.15;5.50;;;;;;;3.98;96.58;102592.53;5095011;28;20130;-63
2023/03/28 08:11:40;;;;;;;13.70;5.07;;;;;;;4.00;94.82;102602.09;5083965;28;20507;-62
2023/03/28 08:14:14;;;;;;;13.55;4.85;;;;;;;4.02;94.49;102593.84;5077768;28;20048;-60
2023/03/28 08:16:43;;;;;;;13.32;4.72;;;;;;;4.09;94.57;102589.41;5095729;28;20044;-62
2023/03/28 08:19:11;;;;;;;21.33;5.78;;;;;;;4.18;95.46;102593.69;5094419;28;20150;-61
2023/03/28 08:22:06;;;;;;;15.48;5.45;;;;;;;4.22;94.81;102602.28;5104554;27;20044;-63
2023/03/28 08:24:42;;;;;;;13.00;4.70;;;;;;;4.24;93.56;102598.38;5101951;28;20051;-62
2023/03/28 08:27:12;;;;;;;15.27;5.32;;;;;;;4.31;94.12;102592.25;5096381;28;20527;-63
2023/03/28 08:29:43;;;;;;;15.57;5.22;;;;;;;4.35;94.20;102602.47;5105589;28;20031;-62
2023/03/28 08:32:11;;;;;;;13.57;5.00;;;;;;;4.40;94.81;102604.63;5098112;28;20440;-62
2023/03/28 08:34:39;;;;;;;11.32;4.40;;;;;;;4.43;93.35;102597.03;5098135;28;20135;-61
2023/03/28 08:37:21;;;;;;;12.00;3.85;;;;;;;4.43;91.64;102593.50;5094866;28;20077;-64
2023/03/28 08:39:50;;;;;;;15.50;4.70;;;;;;;4.44;91.54;102598.69;5086608;28;20043;-61
2023/03/28 08:42:56;;;;;;;14.43;4.80;;;;;;;4.57;94.11;102597.22;5115928;28;20116;-63
2023/03/28 08:45:54;;;;;;;18.65;5.82;;;;;;;4.76;100.00;102588.56;5094710;28;20135;-63
2023/03/28 08:48:29;;;;;;;13.20;4.45;;;;;;;4.72;97.76;102583.75;5060685;28;20154;-62
2023/03/28 08:50:57;;;;;;;10.95;3.92;;;;;;;4.69;95.77;102585.78;5094675;28;20039;-62
2023/03/28 08:53:36;;;;;;;11.32;4.03;;;;;;;4.70;94.94;102582.06;5097943;28;20054;-64
2023/03/28 08:56:08;;;;;;;13.45;4.78;;;;;;;4.78;96.58;102574.88;5115820;28;20068;-62
2023/03/28 08:58:50;;;;;;;17.45;5.30;;;;;;;4.93;100.00;102583.84;5114740;28;20491;-62
2023/03/28 09:01:21;;;;;;;13.77;4.57;;;;;;;5.00;100.00;102571.25;5080777;28;20492;-63
2023/03/28 09:03:49;;;;;;;10.48;3.90;;;;;;;4.87;88.68;102573.78;5114453;28;20268;-63
2023/03/28 09:06:39;;;;;;;13.00;4.13;;;;;;;4.80;85.41;102570.16;5081435;28;20162;-62
2023/03/28 09:09:44;;;;;;;10.57;3.25;;;;;;;4.79;82.69;102576.59;5098231;28;20119;-64
2023/03/28 09:12:36;;;;;;;8.57;3.15;;;;;;;4.78;80.28;102569.50;5063163;28;20048;-63
2023/03/28 09:15:19;;;;;;;11.75;3.25;;;;;;;4.77;78.39;102571.34;5114416;28;20052;-63
2023/03/28 09:18:11;;;;;;;10.25;3.20;;;;;;;4.79;78.96;102576.59;5115271;28;20048;-63
2023/03/28 09:20:53;;;;;;;9.27;3.70;;;;;;;4.82;79.51;102573.50;5082226;28;20051;-62
2023/03/28 09:23:58;;;;;;;14.68;4.03;;;;;;;4.86;80.38;102569.41;5098874;28;20049;-63
2023/03/28 09:27:01;;;;;;;14.68;3.95;;;;;;;4.90;80.42;102573.41;5113227;28;20048;-62
2023/03/28 09:29:32;;;;;;;12.02;3.38;;;;;;;4.92;78.89;102571.34;5113959;28;20055;-63
2023/03/28 09:32:17;;;;;;;10.65;3.97;;;;;;;4.92;77.28;102565.94;5113977;28;20134;-63
2023/03/28 09:34:49;;;;;;;11.48;3.47;;;;;;;4.93;77.59;102562.25;5097407;28;20048;-62
2023/03/28 09:37:27;;;;;;;11.77;3.78;;;;;;;4.97;77.66;102554.59;5093926;28;20169;-64
2023/03/28 09:40:23;;;;;;;11.82;3.78;;;;;;;4.98;77.99;102554.41;5094595;28;20040;-63
2023/03/28 09:43:34;;;;;;;9.38;3.40;;;;;;;5.02;77.93;102552.97;5093970;28;20059;-64
2023/03/28 09:46:40;;;;;;;11.20;3.42;;;;;;;5.03;77.38;102549.28;5093753;28;20426;-63
2023/03/28 09:49:34;;;;;;;12.25;3.95;;;;;;;5.07;77.04;102557.81;5066891;28;20118;-64
2023/03/28 09:52:19;;;;;;;11.93;3.42;;;;;;;5.08;77.08;102549.53;5061252;28;20048;-63
2023/03/28 09:54:48;;;;;;;11.10;3.75;;;;;;;5.11;75.72;102545.63;5059822;28;20051;-64
2023/03/28 09:57:16;;;;;;;13.85;3.47;;;;;;;5.12;74.89;102541.88;5092697;28;20365;-62
2023/03/28 09:59:50;;;;;;;10.82;3.70;;;;;;;5.16;75.97;102536.94;5063022;28;20064;-63
2023/03/28 10:02:31;;;;;;;11.95;4.07;;;;;;;5.20;76.52;102540.97;5106338;28;20396;-63
2023/03/28 10:05:30;;;;;;;11.43;3.40;;;;;;;5.22;74.92;102525.38;5099882;28;20044;-64
2023/03/28 10:08:18;;;;;;;9.13;3.13;;;;;;;5.26;75.50;102518.56;5090531;28;20056;-64
2023/03/28 10:11:12;;;;;;;11.77;3.65;;;;;;;5.46;79.36;102524.19;5078495;28;20086;-64
2023/03/28 10:13:51;;;;;;;9.85;3.30;;;;;;;5.54;76.69;102519.50;5093202;28;20048;-65
2023/03/28 10:16:31;;;;;;;20.40;5.10;;;;;;;5.69;82.84;102515.88;5076380;28;20548;-64
2023/03/28 10:19:13;;;;;;;17.00;5.35;;;;;;;6.00;95.64;102512.03;5110467;28;20083;-63
2023/03/28 10:22:06;;;;;;;16.10;5.18;;;;;;;5.92;92.55;102502.16;5102486;28;20135;-63
2023/03/28 10:24:38;;;;;;;14.75;4.70;;;;;;;5.89;84.81;102503.41;5112902;28;20047;-64
2023/03/28 10:27:22;;;;;;;12.55;4.15;;;;;;;5.80;81.31;102492.88;5111621;28;20052;-64
2023/03/28 10:29:52;;;;;;;9.88;3.42;;;;;;;5.72;77.42;102486.59;5092260;28;20063;-63
2023/03/28 10:32:31;;;;;;;17.17;5.40;;;;;;;5.81;86.38;102487.28;5076305;28;20127;-64
2023/03/28 10:35:29;;;;;;;14.20;5.83;;;;;;;6.10;98.27;102494.41;4741233;28;9999929;-64
2023/03/28 10:38:17;;;;;;;18.42;6.32;;;;;;;6.16;100.00;102476.56;5108974;28;20285;-64
2023/03/28 10:41:06;;;;;;;22.65;7.90;;;;;;;6.37;100.00;102470.22;5108829;28;20048;-66
2023/03/28 10:43:49;;;;;;;14.95;5.43;;;;;;;6.24;100.00;102476.41;5109133;28;20575;-64
2023/03/28 10:46:36;;;;;;;10.10;3.65;;;;;;;5.99;86.61;102465.22;5108402;28;20460;-63
2023/03/28 10:49:16;;;;;;;13.30;4.35;;;;;;;5.94;84.75;102459.53;5093481;28;20043;-63
2023/03/28 10:51:53;;;;;;;15.50;6.38;;;;;;;6.04;96.36;102460.03;5093004;28;20039;-64
2023/03/28 10:55:08;;;;;;;12.32;3.78;;;;;;;6.03;84.10;102452.94;5108538;28;20051;-65
2023/03/28 10:58:24;;;;;;;10.75;4.45;;;;;;;6.36;96.91;102453.16;5087020;28;20060;-64
2023/03/28 11:01:27;;;;;;;12.48;4.63;;;;;;;6.48;96.17;102450.72;5101742;28;20070;-65
2023/03/28 11:04:53;;;;;;;14.95;5.25;;;;;;;6.58;100.00;102439.50;5074441;28;20059;-65
2023/03/28 11:07:48;;;;;;;13.40;5.68;;;;;;;6.70;100.00;102448.72;5080061;28;20059;-64
2023/03/28 11:10:56;;;;;;;14.52;5.70;;;;;;;6.83;98.70;102442.53;5081652;28;20056;-64
2023/03/28 11:13:49;;;;;;;11.27;5.28;;;;;;;6.80;99.34;102440.22;5075811;28;20150;-64
2023/03/28 11:16:48;;;;;;;8.43;3.13;;;;;;;6.45;76.11;102426.75;5091318;28;20598;-64
2023/03/28 11:19:41;;;;;;;12.90;3.65;;;;;;;6.38;71.95;102431.31;5089379;28;20066;-63
2023/03/28 11:22:19;;;;;;;11.05;3.40;;;;;;;6.37;67.80;102424.19;5064764;28;20060;-65
2023/03/28 11:25:19;;;;;;;21.33;5.28;;;;;;;6.49;73.78;102410.94;5089784;28;20039;-65
2023/03/28 11:28:33;;;;;;;9.60;3.20;;;;;;;6.71;77.01;102408.94;5095952;28;20503;-63
2023/03/28 11:31:21;;;;;;;10.25;3.40;;;;;;;6.56;69.39;102392.84;5110867;28;20050;-64
2023/03/28 11:34:05;;;;;;;10.02;3.38;;;;;;;6.47;65.23;102388.63;5100628;28;20062;-64
2023/03/28 11:36:41;;;;;;;7.25;2.80;;;;;;;6.44;63.50;102389.88;5109311;28;20398;-63
2023/03/28 11:39:24;;;;;;;14.05;4.30;;;;;;;6.68;79.60;102384.97;5101183;28;20048;-64
2023/03/28 11:41:53;;;;;;;9.57;3.83;;;;;;;6.98;84.98;102385.47;5111526;28;20467;-65
2023/03/28 11:45:03;;;;;;;11.90;4.13;;;;;;;7.33;98.86;102388.00;5094596;28;20043;-65
2023/03/28 11:47:36;;;;;;;8.50;3.25;;;;;;;7.10;65.96;102383.81;5108710;28;20056;-64
2023/03/28 11:50:21;;;;;;;10.60;3.78;;;;;;;7.17;84.26;102384.66;5096082;28;20112;-64
2023/03/28 11:53:06;;;;;;;8.95;3.35;;;;;;;7.12;76.11;102375.47;5096510;28;20465;-64
2023/03/28 11:55:56;;;;;;;13.52;4.82;;;;;;;7.38;87.06;102363.81;5080806;28;20089;-64
2023/03/28 11:59:08;;;;;;;11.75;4.10;;;;;;;7.33;70.05;102352.75;5094834;28;20566;-63
2023/03/28 12:01:41;;;;;;;9.13;4.00;;;;;;;7.64;85.61;102343.97;5098729;28;20051;-63
2023/03/28 12:04:29;;;;;;;11.85;3.97;;;;;;;7.67;86.75;102338.97;5115488;28;20036;-64
2023/03/28 12:07:11;;;;;;;11.20;3.38;;;;;;;7.32;64.71;102332.13;5098392;28;20051;-63
2023/03/28 12:09:57;;;;;;;11.15;4.22;;;;;;;7.36;76.81;102330.66;5115063;28;20403;-62
2023/03/28 12:12:32;;;;;;;11.98;4.63;;;;;;;7.45;89.65;102310.41;5116425;28;20488;-64
2023/03/28 12:15:14;;;;;;;10.48;4.13;;;;;;;7.56;89.42;102319.81;5082932;28;20508;-63
2023/03/28 12:18:01;;;;;;;11.77;4.85;;;;;;;7.81;94.04;102314.53;5086866;27;20059;-63